Calypso — IYQT — position and weather

sailwx.info

Track history (hours):
 
Tides and Currents Weather Stations Pressure Air Temp Water Temp Dewpoint Dewpoint Depression Visibility Wind Speed Wind Dir Waves Ship Positions

Calypso

Last reported at 2017-Sep-21 22:29 UTC. Time now 2017-Nov-24 18:34 UTC.
Position N 38°01' E 012°31'.
Warning: this ship's position is months out of date.

Length 31 m; draft 4 m.

Type: High speed craft. MMSI: 247143200.

Date/timePositionNaut miles runAvg speedWind from/ knotsBaromVisibWave heightAir tempDewpointWater temp
2017-Sep-21 22:29N 38°01' E 012°31'2 4.4
2017-Sep-21 22:00N 38°01' E 012°28'2711.2
2017-Sep-21 19:34N 38°16' E 012°57'312.3
2017-Sep-21 19:20N 38°16' E 013°01'412.2
2017-Sep-21 19:00N 38°17' E 013°06'612.0
2017-Sep-21 18:31N 38°17' E 013°13'611.9
2017-Sep-21 18:00N 38°17' E 013°21'612.1
2017-Sep-21 17:30N 38°17' E 013°29'611.9
2017-Sep-21 17:00N 38°17' E 013°36'611.9
2017-Sep-21 16:29N 38°16' E 013°44'611.9
2017-Sep-21 15:59N 38°16' E 013°52'5011.9
2017-Sep-21 11:48N 38°15' E 014°55'411.9
2017-Sep-21 11:30N 38°15' E 014°60'612.0
2017-Sep-21 11:01N 38°16' E 015°07'611.8
2017-Sep-21 10:31N 38°17' E 015°14'4 8.0
2017-Sep-21 10:00N 38°13' E 015°15'0 0.0
2017-Sep-21 09:30N 38°13' E 015°15'0 0.0
2017-Sep-21 09:00N 38°13' E 015°15'0 0.0
2017-Sep-21 08:30N 38°13' E 015°15'0 0.0
2017-Sep-20 15:29N 38°13' E 015°15'1 2.0
2017-Sep-20 15:01N 38°13' E 015°16'1 0.8
2017-Sep-20 14:00N 38°13' E 015°15'0 0.0
2017-Sep-20 13:31N 38°13' E 015°15'1 1.8
2017-Sep-20 13:01N 38°13' E 015°16'1 1.8
2017-Sep-20 12:30N 38°13' E 015°15'1 1.6
2017-Sep-20 12:00N 38°13' E 015°16'1 1.3
2017-Sep-20 11:30N 38°13' E 015°16'1 1.6
2017-Sep-20 11:01N 38°13' E 015°15'0 0.9
2017-Sep-20 10:30N 38°13' E 015°15'0 0.2
2017-Sep-20 10:01N 38°13' E 015°15'0 0.6
2017-Sep-20 09:30N 38°13' E 015°15'0 0.6
2017-Sep-20 09:00N 38°13' E 015°15'1021.0
2017-Sep-20 08:31N 38°23' E 015°13'1117.3
2017-Sep-20 07:51N 38°26' E 014°58'3 7.7
2017-Sep-20 07:29N 38°28' E 014°59'4 3.4
2017-Sep-20 06:27N 38°32' E 014°57'1 0.5
2017-Sep-20 05:01N 38°32' E 014°58'031.7
2017-Sep-20 05:00N 38°31' E 014°58'3 0.2
2017-Sep-19 16:33N 38°29' E 014°58'1 5.6
2017-Sep-19 16:20N 38°29' E 014°59'2 3.8
2017-Sep-19 15:47N 38°31' E 014°58'3 7.0
2017-Sep-19 15:24N 38°28' E 014°58'614.9
2017-Sep-19 14:59N 38°23' E 015°02'1531.4
2017-Sep-19 14:30N 38°14' E 015°17'2 4.4
2017-Sep-19 14:00N 38°13' E 015°15'1326.4
2017-Sep-19 13:31N 38°24' E 015°07'811.9
2017-Sep-19 12:50N 38°28' E 014°58'3 2.6
2017-Sep-19 11:52N 38°31' E 014°59'3 8.6
2017-Sep-19 11:29N 38°27' E 014°58'815.5
2017-Sep-19 11:00N 38°23' E 015°06'1225.2
2017-Sep-19 10:30N 38°13' E 015°16'1 1.4
2017-Sep-19 10:00N 38°13' E 015°15'0 0.1
2017-Sep-19 09:30N 38°13' E 015°15'0 0.0
2017-Sep-19 09:00N 38°13' E 015°15'0 0.3
2017-Sep-19 08:30N 38°13' E 015°15'1224.7
2017-Sep-19 08:00N 38°23' E 015°05'7 9.8
2017-Sep-19 07:15N 38°29' E 014°59'3 2.9
2017-Sep-19 06:17N 38°26' E 014°57'2 7.2
2017-Sep-19 05:59N 38°28' E 014°58'1 0.8
2017-Sep-19 05:02N 38°28' E 014°58'1 0.1
2017-Sep-18 16:09N 38°29' E 014°58'0 2.6
2017-Sep-18 16:00N 38°28' E 014°57'2 3.5
2017-Sep-18 15:23N 38°30' E 014°59'5 8.8
2017-Sep-18 14:47N 38°25' E 014°58'931.3
2017-Sep-18 14:30N 38°20' E 015°07'918.4
2017-Sep-18 14:00N 38°13' E 015°14'713.7
2017-Sep-18 13:30N 38°20' E 015°12'1222.5
2017-Sep-18 12:58N 38°25' E 014°58'5 4.0
2017-Sep-18 11:42N 38°30' E 014°59'210.4
2017-Sep-18 11:29N 38°28' E 014°57'611.0
2017-Sep-18 10:59N 38°24' E 015°01'1531.7
2017-Sep-18 10:30N 38°14' E 015°17'2 4.0
2017-Sep-18 10:00N 38°13' E 015°14'0 0.7
2017-Sep-18 09:30N 38°13' E 015°15'0 0.7
2017-Sep-18 09:00N 38°13' E 015°14'510.8
2017-Sep-18 08:30N 38°18' E 015°14'1326.1
2017-Sep-18 08:00N 38°25' E 014°59'4 5.4
2017-Sep-18 07:15N 38°29' E 014°59'3 3.5
2017-Sep-18 06:22N 38°32' E 014°58'3 9.0
2017-Sep-18 06:00N 38°28' E 014°58'19 1.2
2017-Sep-17 14:11N 38°16' E 015°16'314.3
2017-Sep-17 13:57N 38°13' E 015°14'510.6
2017-Sep-17 13:30N 38°18' E 015°14'4 1.4
2017-Sep-17 10:43N 38°20' E 015°10'732.9
2017-Sep-17 10:30N 38°16' E 015°17'4 7.7
2017-Sep-17 10:00N 38°13' E 015°14'0 0.4
2017-Sep-17 09:30N 38°13' E 015°15'0 0.0
2017-Sep-17 09:00N 38°13' E 015°15'1 1.8
2017-Sep-17 08:30N 38°13' E 015°16'2116.0
2017-Sep-17 07:13N 38°29' E 014°59'815.6
2017-Sep-17 06:42N 38°33' E 014°50'720.6
2017-Sep-17 06:23N 38°32' E 014°58'3 0.2
2017-Sep-16 16:36N 38°29' E 014°58'0 0.0
2017-Sep-16 16:30N 38°29' E 014°58'5 8.1
2017-Sep-16 15:52N 38°33' E 014°54'515.1
2017-Sep-16 15:30N 38°28' E 014°57'510.1
2017-Sep-16 15:00N 38°24' E 015°01'1632.1
2017-Sep-16 14:30N 38°14' E 015°17'1 1.5
2017-Sep-16 14:00N 38°13' E 015°16'1530.8
2017-Sep-16 13:30N 38°24' E 015°01'5 9.7
2017-Sep-16 12:57N 38°28' E 014°57'4 3.8
2017-Sep-16 12:00N 38°32' E 014°57'4 7.4
2017-Sep-16 11:29N 38°28' E 014°58'511.1
2017-Sep-16 11:00N 38°24' E 015°02'1530.9
2017-Sep-16 10:30N 38°13' E 015°16'1 0.9
2017-Sep-16 09:15N 38°13' E 015°15'0 1.4
2017-Sep-16 09:00N 38°13' E 015°14'612.5
2017-Sep-16 08:31N 38°19' E 015°12'1218.6
2017-Sep-16 07:51N 38°25' E 014°58'3 7.8
2017-Sep-16 07:25N 38°28' E 014°57'5 9.0
2017-Sep-16 06:50N 38°32' E 014°52'2 6.8
2017-Sep-16 06:30N 38°30' E 014°52'611.0
2017-Sep-16 06:00N 38°28' E 014°59'714.0
2017-Sep-16 05:30N 38°32' E 014°51'714.6
2017-Sep-16 05:00N 38°27' E 014°58'2 3.5
2017-Sep-16 04:30N 38°29' E 014°58'0 0.0
2017-Sep-15 16:13N 38°28' E 014°57'1 7.1
2017-Sep-15 16:00N 38°29' E 014°59'2 3.1
2017-Sep-15 15:27N 38°30' E 014°59'512.4
2017-Sep-15 15:00N 38°25' E 014°58'714.5
2017-Sep-15 14:30N 38°21' E 015°06'1121.1
2017-Sep-15 14:00N 38°13' E 015°14'5 9.3
2017-Sep-15 13:31N 38°18' E 015°13'1425.2
2017-Sep-15 12:57N 38°25' E 014°58'714.9
2017-Sep-15 12:30N 38°32' E 014°58'1 1.0
2017-Sep-15 11:40N 38°31' E 014°58'3 7.9
2017-Sep-15 11:19N 38°28' E 014°57'310.1
2017-Sep-15 10:59N 38°25' E 014°58'1634.0
2017-Sep-15 10:30N 38°17' E 015°16'4 7.1
2017-Sep-15 10:00N 38°13' E 015°14'0 0.7
2017-Sep-15 09:30N 38°13' E 015°15'0 0.6
2017-Sep-15 09:00N 38°13' E 015°15'3 5.7
2017-Sep-15 08:30N 38°15' E 015°16'1633.0
2017-Sep-15 08:01N 38°25' E 014°59'4 4.9
2017-Sep-15 07:17N 38°28' E 014°58'3 3.0
2017-Sep-15 06:21N 38°27' E 014°55'2 6.5
2017-Sep-15 06:00N 38°28' E 014°58'2 2.9
2017-Sep-15 05:10N 38°27' E 014°55'2 0.2
2017-Sep-14 16:12N 38°28' E 014°58'422.2
2017-Sep-14 16:00N 38°32' E 014°56'5 6.6
2017-Sep-14 15:16N 38°28' E 014°58'3 7.3
2017-Sep-14 14:53N 38°25' E 014°58'1333.6
2017-Sep-14 14:30N 38°18' E 015°12'5 6.1
2017-Sep-14 13:39N 38°14' E 015°16'431.4
2017-Sep-14 13:30N 38°18' E 015°14'1524.0
2017-Sep-14 12:53N 38°27' E 014°58'6 5.1
2017-Sep-14 11:47N 38°32' E 014°56'5 9.8
2017-Sep-14 11:19N 38°28' E 014°58'410.5
2017-Sep-14 10:58N 38°25' E 014°60'1633.5
2017-Sep-14 10:30N 38°16' E 015°16'3 6.6
2017-Sep-14 10:00N 38°13' E 015°14'0 0.7
2017-Sep-14 09:30N 38°13' E 015°15'0 0.4
2017-Sep-14 09:00N 38°13' E 015°15'2 4.7
2017-Sep-14 08:31N 38°15' E 015°16'1429.0
2017-Sep-14 08:01N 38°23' E 015°01'6 8.3
2017-Sep-14 07:18N 38°28' E 014°58'2 1.7
2017-Sep-14 06:17N 38°27' E 014°58'2 6.0
2017-Sep-14 06:00N 38°28' E 014°58'3 3.0
2017-Sep-14 05:06N 38°27' E 014°55'3 9.1
2017-Sep-14 04:49N 38°28' E 014°58'0 0.0
2017-Sep-13 16:20N 38°29' E 014°58'1 1.7
2017-Sep-13 15:33N 38°29' E 014°59'222.5
2017-Sep-13 15:29N 38°28' E 014°57'4 6.8
2017-Sep-13 14:55N 38°25' E 014°59'1433.3
2017-Sep-13 14:31N 38°17' E 015°14'4 8.5
2017-Sep-13 14:01N 38°13' E 015°14'1019.6
2017-Sep-13 13:30N 38°21' E 015°08'1019.8
2017-Sep-13 13:00N 38°28' E 014°58'2 1.6
2017-Sep-13 11:45N 38°30' E 014°59'3 6.5
2017-Sep-13 11:20N 38°27' E 014°59'411.1
2017-Sep-13 11:00N 38°24' E 015°02'1531.0
2017-Sep-13 10:31N 38°14' E 015°17'2 4.4
2017-Sep-13 10:00N 38°13' E 015°15'0 0.2
2017-Sep-13 09:30N 38°13' E 015°15'0 0.7
2017-Sep-13 09:00N 38°13' E 015°14'4 7.7
2017-Sep-13 08:30N 38°17' E 015°15'1530.7
2017-Sep-13 08:00N 38°25' E 014°58'3 6.0
2017-Sep-13 07:26N 38°28' E 014°57'2 2.4
2017-Sep-13 06:27N 38°30' E 014°59'2 0.8
2017-Sep-13 03:27N 38°28' E 015°00'2 0.2
2017-Sep-12 16:05N 38°28' E 014°58'324.3
2017-Sep-12 15:57N 38°32' E 014°58'1 1.8
2017-Sep-12 15:30N 38°31' E 014°58'6 9.3
2017-Sep-12 14:49N 38°25' E 015°01'1611.9
2017-Sep-12 13:28N 38°13' E 015°14'0 0.7
2017-Sep-12 13:00N 38°13' E 015°15'0 0.5
2017-Sep-12 12:30N 38°13' E 015°15'0 0.1
2017-Sep-12 12:00N 38°13' E 015°14'0 0.0
2017-Sep-12 11:30N 38°13' E 015°14'0 0.0
2017-Sep-12 11:00N 38°13' E 015°14'0 0.4
2017-Sep-12 10:30N 38°13' E 015°15'0 0.0
2017-Sep-12 10:00N 38°13' E 015°15'0 0.1
2017-Sep-12 09:30N 38°13' E 015°15'1 1.3
2017-Sep-12 09:00N 38°13' E 015°15'1223.2
2017-Sep-12 08:30N 38°24' E 015°09'  
Track history (hours):
 
Tides and Currents Weather Stations Pressure Air Temp Water Temp Dewpoint Dewpoint Depression Visibility Wind Speed Wind Dir Waves Ship Positions

Calypso

Last reported at 2017-Sep-21 22:29 UTC. Time now 2017-Nov-24 18:34 UTC.
Position N 38°01' E 012°31'.
Warning: this ship's position is months out of date.

Length 31 m; draft 4 m.

Type: High speed craft. MMSI: 247143200.

Date/timePositionNaut miles runAvg speedWind from/ knotsBaromVisibWave heightAir tempDewpointWater temp
2017-Sep-21 22:29N 38°01' E 012°31'2 4.4
2017-Sep-21 22:00N 38°01' E 012°28'2711.2
2017-Sep-21 19:34N 38°16' E 012°57'312.3
2017-Sep-21 19:20N 38°16' E 013°01'412.2
2017-Sep-21 19:00N 38°17' E 013°06'612.0
2017-Sep-21 18:31N 38°17' E 013°13'611.9
2017-Sep-21 18:00N 38°17' E 013°21'612.1
2017-Sep-21 17:30N 38°17' E 013°29'611.9
2017-Sep-21 17:00N 38°17' E 013°36'611.9
2017-Sep-21 16:29N 38°16' E 013°44'611.9
2017-Sep-21 15:59N 38°16' E 013°52'5011.9
2017-Sep-21 11:48N 38°15' E 014°55'411.9
2017-Sep-21 11:30N 38°15' E 014°60'612.0
2017-Sep-21 11:01N 38°16' E 015°07'611.8
2017-Sep-21 10:31N 38°17' E 015°14'4 8.0
2017-Sep-21 10:00N 38°13' E 015°15'0 0.0
2017-Sep-21 09:30N 38°13' E 015°15'0 0.0
2017-Sep-21 09:00N 38°13' E 015°15'0 0.0
2017-Sep-21 08:30N 38°13' E 015°15'0 0.0
2017-Sep-20 15:29N 38°13' E 015°15'1 2.0
2017-Sep-20 15:01N 38°13' E 015°16'1 0.8
2017-Sep-20 14:00N 38°13' E 015°15'0 0.0
2017-Sep-20 13:31N 38°13' E 015°15'1 1.8
2017-Sep-20 13:01N 38°13' E 015°16'1 1.8
2017-Sep-20 12:30N 38°13' E 015°15'1 1.6
2017-Sep-20 12:00N 38°13' E 015°16'1 1.3
2017-Sep-20 11:30N 38°13' E 015°16'1 1.6
2017-Sep-20 11:01N 38°13' E 015°15'0 0.9
2017-Sep-20 10:30N 38°13' E 015°15'0 0.2
2017-Sep-20 10:01N 38°13' E 015°15'0 0.6
2017-Sep-20 09:30N 38°13' E 015°15'0 0.6
2017-Sep-20 09:00N 38°13' E 015°15'1021.0
2017-Sep-20 08:31N 38°23' E 015°13'1117.3
2017-Sep-20 07:51N 38°26' E 014°58'3 7.7
2017-Sep-20 07:29N 38°28' E 014°59'4 3.4
2017-Sep-20 06:27N 38°32' E 014°57'1 0.5
2017-Sep-20 05:01N 38°32' E 014°58'031.7
2017-Sep-20 05:00N 38°31' E 014°58'3 0.2
2017-Sep-19 16:33N 38°29' E 014°58'1 5.6
2017-Sep-19 16:20N 38°29' E 014°59'2 3.8
2017-Sep-19 15:47N 38°31' E 014°58'3 7.0
2017-Sep-19 15:24N 38°28' E 014°58'614.9
2017-Sep-19 14:59N 38°23' E 015°02'1531.4
2017-Sep-19 14:30N 38°14' E 015°17'2 4.4
2017-Sep-19 14:00N 38°13' E 015°15'1326.4
2017-Sep-19 13:31N 38°24' E 015°07'811.9
2017-Sep-19 12:50N 38°28' E 014°58'3 2.6
2017-Sep-19 11:52N 38°31' E 014°59'3 8.6
2017-Sep-19 11:29N 38°27' E 014°58'815.5
2017-Sep-19 11:00N 38°23' E 015°06'1225.2
2017-Sep-19 10:30N 38°13' E 015°16'1 1.4
2017-Sep-19 10:00N 38°13' E 015°15'0 0.1
2017-Sep-19 09:30N 38°13' E 015°15'0 0.0
2017-Sep-19 09:00N 38°13' E 015°15'0 0.3
2017-Sep-19 08:30N 38°13' E 015°15'1224.7
2017-Sep-19 08:00N 38°23' E 015°05'7 9.8
2017-Sep-19 07:15N 38°29' E 014°59'3 2.9
2017-Sep-19 06:17N 38°26' E 014°57'2 7.2
2017-Sep-19 05:59N 38°28' E 014°58'1 0.8
2017-Sep-19 05:02N 38°28' E 014°58'1 0.1
2017-Sep-18 16:09N 38°29' E 014°58'0 2.6
2017-Sep-18 16:00N 38°28' E 014°57'2 3.5
2017-Sep-18 15:23N 38°30' E 014°59'5 8.8
2017-Sep-18 14:47N 38°25' E 014°58'931.3
2017-Sep-18 14:30N 38°20' E 015°07'918.4
2017-Sep-18 14:00N 38°13' E 015°14'713.7
2017-Sep-18 13:30N 38°20' E 015°12'1222.5
2017-Sep-18 12:58N 38°25' E 014°58'5 4.0
2017-Sep-18 11:42N 38°30' E 014°59'210.4
2017-Sep-18 11:29N 38°28' E 014°57'611.0
2017-Sep-18 10:59N 38°24' E 015°01'1531.7
2017-Sep-18 10:30N 38°14' E 015°17'2 4.0
2017-Sep-18 10:00N 38°13' E 015°14'0 0.7
2017-Sep-18 09:30N 38°13' E 015°15'0 0.7
2017-Sep-18 09:00N 38°13' E 015°14'510.8
2017-Sep-18 08:30N 38°18' E 015°14'1326.1
2017-Sep-18 08:00N 38°25' E 014°59'4 5.4
2017-Sep-18 07:15N 38°29' E 014°59'3 3.5
2017-Sep-18 06:22N 38°32' E 014°58'3 9.0
2017-Sep-18 06:00N 38°28' E 014°58'19 1.2
2017-Sep-17 14:11N 38°16' E 015°16'314.3
2017-Sep-17 13:57N 38°13' E 015°14'510.6
2017-Sep-17 13:30N 38°18' E 015°14'4 1.4
2017-Sep-17 10:43N 38°20' E 015°10'732.9
2017-Sep-17 10:30N 38°16' E 015°17'4 7.7
2017-Sep-17 10:00N 38°13' E 015°14'0 0.4
2017-Sep-17 09:30N 38°13' E 015°15'0 0.0
2017-Sep-17 09:00N 38°13' E 015°15'1 1.8
2017-Sep-17 08:30N 38°13' E 015°16'2116.0
2017-Sep-17 07:13N 38°29' E 014°59'815.6
2017-Sep-17 06:42N 38°33' E 014°50'720.6
2017-Sep-17 06:23N 38°32' E 014°58'3 0.2
2017-Sep-16 16:36N 38°29' E 014°58'0 0.0
2017-Sep-16 16:30N 38°29' E 014°58'5 8.1
2017-Sep-16 15:52N 38°33' E 014°54'515.1
2017-Sep-16 15:30N 38°28' E 014°57'510.1
2017-Sep-16 15:00N 38°24' E 015°01'1632.1
2017-Sep-16 14:30N 38°14' E 015°17'1 1.5
2017-Sep-16 14:00N 38°13' E 015°16'1530.8
2017-Sep-16 13:30N 38°24' E 015°01'5 9.7
2017-Sep-16 12:57N 38°28' E 014°57'4 3.8
2017-Sep-16 12:00N 38°32' E 014°57'4 7.4
2017-Sep-16 11:29N 38°28' E 014°58'511.1
2017-Sep-16 11:00N 38°24' E 015°02'1530.9
2017-Sep-16 10:30N 38°13' E 015°16'1 0.9
2017-Sep-16 09:15N 38°13' E 015°15'0 1.4
2017-Sep-16 09:00N 38°13' E 015°14'612.5
2017-Sep-16 08:31N 38°19' E 015°12'1218.6
2017-Sep-16 07:51N 38°25' E 014°58'3 7.8
2017-Sep-16 07:25N 38°28' E 014°57'5 9.0
2017-Sep-16 06:50N 38°32' E 014°52'2 6.8
2017-Sep-16 06:30N 38°30' E 014°52'611.0
2017-Sep-16 06:00N 38°28' E 014°59'714.0
2017-Sep-16 05:30N 38°32' E 014°51'714.6
2017-Sep-16 05:00N 38°27' E 014°58'2 3.5
2017-Sep-16 04:30N 38°29' E 014°58'0 0.0
2017-Sep-15 16:13N 38°28' E 014°57'1 7.1
2017-Sep-15 16:00N 38°29' E 014°59'2 3.1
2017-Sep-15 15:27N 38°30' E 014°59'512.4
2017-Sep-15 15:00N 38°25' E 014°58'714.5
2017-Sep-15 14:30N 38°21' E 015°06'1121.1
2017-Sep-15 14:00N 38°13' E 015°14'5 9.3
2017-Sep-15 13:31N 38°18' E 015°13'1425.2
2017-Sep-15 12:57N 38°25' E 014°58'714.9
2017-Sep-15 12:30N 38°32' E 014°58'1 1.0
2017-Sep-15 11:40N 38°31' E 014°58'3 7.9
2017-Sep-15 11:19N 38°28' E 014°57'310.1
2017-Sep-15 10:59N 38°25' E 014°58'1634.0
2017-Sep-15 10:30N 38°17' E 015°16'4 7.1
2017-Sep-15 10:00N 38°13' E 015°14'0 0.7
2017-Sep-15 09:30N 38°13' E 015°15'0 0.6
2017-Sep-15 09:00N 38°13' E 015°15'3 5.7
2017-Sep-15 08:30N 38°15' E 015°16'1633.0
2017-Sep-15 08:01N 38°25' E 014°59'4 4.9
2017-Sep-15 07:17N 38°28' E 014°58'3 3.0
2017-Sep-15 06:21N 38°27' E 014°55'2 6.5
2017-Sep-15 06:00N 38°28' E 014°58'2 2.9
2017-Sep-15 05:10N 38°27' E 014°55'2 0.2
2017-Sep-14 16:12N 38°28' E 014°58'422.2
2017-Sep-14 16:00N 38°32' E 014°56'5 6.6
2017-Sep-14 15:16N 38°28' E 014°58'3 7.3
2017-Sep-14 14:53N 38°25' E 014°58'1333.6
2017-Sep-14 14:30N 38°18' E 015°12'5 6.1
2017-Sep-14 13:39N 38°14' E 015°16'431.4
2017-Sep-14 13:30N 38°18' E 015°14'1524.0
2017-Sep-14 12:53N 38°27' E 014°58'6 5.1
2017-Sep-14 11:47N 38°32' E 014°56'5 9.8
2017-Sep-14 11:19N 38°28' E 014°58'410.5
2017-Sep-14 10:58N 38°25' E 014°60'1633.5
2017-Sep-14 10:30N 38°16' E 015°16'3 6.6
2017-Sep-14 10:00N 38°13' E 015°14'0 0.7
2017-Sep-14 09:30N 38°13' E 015°15'0 0.4
2017-Sep-14 09:00N 38°13' E 015°15'2 4.7
2017-Sep-14 08:31N 38°15' E 015°16'1429.0
2017-Sep-14 08:01N 38°23' E 015°01'6 8.3
2017-Sep-14 07:18N 38°28' E 014°58'2 1.7
2017-Sep-14 06:17N 38°27' E 014°58'2 6.0
2017-Sep-14 06:00N 38°28' E 014°58'3 3.0
2017-Sep-14 05:06N 38°27' E 014°55'3 9.1
2017-Sep-14 04:49N 38°28' E 014°58'0 0.0
2017-Sep-13 16:20N 38°29' E 014°58'1 1.7
2017-Sep-13 15:33N 38°29' E 014°59'222.5
2017-Sep-13 15:29N 38°28' E 014°57'4 6.8
2017-Sep-13 14:55N 38°25' E 014°59'1433.3
2017-Sep-13 14:31N 38°17' E 015°14'4 8.5
2017-Sep-13 14:01N 38°13' E 015°14'1019.6
2017-Sep-13 13:30N 38°21' E 015°08'1019.8
2017-Sep-13 13:00N 38°28' E 014°58'2 1.6
2017-Sep-13 11:45N 38°30' E 014°59'3 6.5
2017-Sep-13 11:20N 38°27' E 014°59'411.1
2017-Sep-13 11:00N 38°24' E 015°02'1531.0
2017-Sep-13 10:31N 38°14' E 015°17'2 4.4
2017-Sep-13 10:00N 38°13' E 015°15'0 0.2
2017-Sep-13 09:30N 38°13' E 015°15'0 0.7
2017-Sep-13 09:00N 38°13' E 015°14'4 7.7
2017-Sep-13 08:30N 38°17' E 015°15'1530.7
2017-Sep-13 08:00N 38°25' E 014°58'3 6.0
2017-Sep-13 07:26N 38°28' E 014°57'2 2.4
2017-Sep-13 06:27N 38°30' E 014°59'2 0.8
2017-Sep-13 03:27N 38°28' E 015°00'2 0.2
2017-Sep-12 16:05N 38°28' E 014°58'324.3
2017-Sep-12 15:57N 38°32' E 014°58'1 1.8
2017-Sep-12 15:30N 38°31' E 014°58'6 9.3
2017-Sep-12 14:49N 38°25' E 015°01'1611.9
2017-Sep-12 13:28N 38°13' E 015°14'0 0.7
2017-Sep-12 13:00N 38°13' E 015°15'0 0.5
2017-Sep-12 12:30N 38°13' E 015°15'0 0.1
2017-Sep-12 12:00N 38°13' E 015°14'0 0.0
2017-Sep-12 11:30N 38°13' E 015°14'0 0.0
2017-Sep-12 11:00N 38°13' E 015°14'0 0.4
2017-Sep-12 10:30N 38°13' E 015°15'0 0.0
2017-Sep-12 10:00N 38°13' E 015°15'0 0.1
2017-Sep-12 09:30N 38°13' E 015°15'1 1.3
2017-Sep-12 09:00N 38°13' E 015°15'1223.2
2017-Sep-12 08:30N 38°24' E 015°09'  

Dump ship's entire track history